createdAt,value
2023-03-03T00:03:29.983Z,17.10
2023-03-03T00:22:11.211Z,13.50
2023-03-03T00:40:42.652Z,13.80
2023-03-03T00:59:19.507Z,20.60
2023-03-03T01:17:57.934Z,30.30
2023-03-03T01:36:36.795Z,18.50
2023-03-03T01:55:15.738Z,18.00
2023-03-03T02:14:00.144Z,22.00
2023-03-03T02:32:33.424Z,22.40
2023-03-03T02:51:12.594Z,28.20
2023-03-03T03:09:49.145Z,30.00
2023-03-03T03:28:28.262Z,34.20
2023-03-03T03:47:07.013Z,39.60
2023-03-03T04:05:41.651Z,38.70
2023-03-03T04:24:26.141Z,27.00
2023-03-03T04:42:59.353Z,41.10
2023-03-03T05:01:37.930Z,30.20
2023-03-03T05:20:16.058Z,32.20
2023-03-03T05:38:54.797Z,29.30
2023-03-03T05:57:34.266Z,26.00
2023-03-03T06:16:13.808Z,46.70
2023-03-03T06:34:56.530Z,32.80
2023-03-03T06:53:32.657Z,28.80
2023-03-03T07:12:12.674Z,37.10
2023-03-03T07:30:54.149Z,31.80
2023-03-03T07:49:33.703Z,35.40
2023-03-03T08:08:21.531Z,26.90
2023-03-03T08:26:55.764Z,25.00
2023-03-03T08:45:37.661Z,18.60
2023-03-03T09:04:19.275Z,22.00
2023-03-03T09:23:00.430Z,23.30
2023-03-03T09:41:40.187Z,23.70
2023-03-03T10:00:26.742Z,23.00
2023-03-03T10:19:00.680Z,20.10
2023-03-03T10:37:44.436Z,12.00
2023-03-03T10:56:24.029Z,16.40
2023-03-03T11:15:03.320Z,16.30
2023-03-03T11:33:36.735Z,22.80
2023-03-03T11:52:22.451Z,18.80
2023-03-03T12:10:55.978Z,17.00
2023-03-03T12:29:43.146Z,10.50
2023-03-03T12:48:38.524Z,12.00
2023-03-03T13:07:06.316Z,11.20
2023-03-03T13:25:55.591Z,12.80
2023-03-03T13:44:36.385Z,8.00
2023-03-03T14:03:15.474Z,15.20
2023-03-03T14:21:42.626Z,11.90
2023-03-03T14:40:29.519Z,11.70
2023-03-03T14:59:24.716Z,7.60
2023-03-03T15:18:01.293Z,6.20
2023-03-03T16:13:41.300Z,16.00
2023-03-03T16:32:09.863Z,7.30
2023-03-03T16:50:47.440Z,16.00
2023-03-03T17:09:32.017Z,25.30
2023-03-03T17:27:58.136Z,13.90
2023-03-03T17:46:32.247Z,10.30
2023-03-03T18:05:08.065Z,14.90
2023-03-03T18:23:46.444Z,14.50
2023-03-03T18:42:26.061Z,9.80
2023-03-03T19:01:05.504Z,16.40
2023-03-03T19:19:44.207Z,21.30
2023-03-03T19:38:25.934Z,11.80
2023-03-03T19:56:58.587Z,10.40
2023-03-03T20:15:40.037Z,26.20
2023-03-03T20:34:15.952Z,10.50
2023-03-03T20:52:55.431Z,27.30
2023-03-03T21:11:35.825Z,23.30
2023-03-03T21:30:11.038Z,15.20
2023-03-03T21:48:53.063Z,14.20
2023-03-03T22:07:28.263Z,12.70
2023-03-03T22:26:07.208Z,8.40
2023-03-03T22:44:48.313Z,8.00
2023-03-03T23:03:25.833Z,5.40
2023-03-03T23:22:04.964Z,12.40
2023-03-03T23:40:43.012Z,16.80
2023-03-03T23:59:28.322Z,13.70
